Time;durP1;ratioP1;P1;durP2;ratioP2;P2;SDS_P1;SDS_P2;PMS_P1;PMS_P2;Temp;Humidity;BMP_temperature;BMP_pressure;BME280_temperature;BME280_humidity;BME280_pressure;Samples;Min_cycle;Max_cycle;Signal;HPM_P1;HPM_P2
2022/08/12 00:44:37;;;;;;;15.15;7.97;;;;;;;;;;5010929;28;20046;-66
2022/08/12 00:47:03;;;;;;;17.13;7.65;;;;;;;;;;5011034;28;20061;-66
2022/08/12 00:49:30;;;;;;;13.38;7.97;;;;;;;;;;5010334;28;20100;-66
2022/08/12 00:52:10;;;;;;;14.68;8.50;;;;;;;;;;5010677;28;20053;-66
2022/08/12 00:54:39;;;;;;;15.98;7.70;;;;;;;;;;5010931;28;20038;-66
2022/08/12 00:57:11;;;;;;;14.98;7.97;;;;;;;;;;5010618;28;20077;-66
2022/08/12 00:59:42;;;;;;;17.52;7.45;;;;;;;;;;5010783;28;20061;-66
2022/08/12 01:02:10;;;;;;;13.95;7.07;;;;;;;;;;4993226;28;20133;-66
2022/08/12 01:12:52;;;;;;;13.10;7.20;;;;;;;;;;5010795;28;20049;-65
2022/08/12 01:15:18;;;;;;;;;;;;;;;;;;5011144;28;20081;-66
2022/08/12 01:17:44;;;;;;;13.88;7.50;;;;;;;;;;5010413;28;19929;-66
2022/08/12 01:20:19;;;;;;;16.52;7.63;;;;;;;;;;5010738;28;20127;-66
2022/08/12 01:22:58;;;;;;;15.80;6.60;;;;;;;;;;5010475;28;20070;-66
2022/08/12 01:25:26;;;;;;;15.13;7.03;;;;;;;;;;5010388;28;20108;-65
2022/08/12 01:27:54;;;;;;;13.48;7.35;;;;;;;;;;5010618;28;20050;-66
2022/08/12 01:30:20;;;;;;;13.45;6.72;;;;;;;;;;5010006;28;20092;-67
2022/08/12 01:32:47;;;;;;;15.30;7.40;;;;;;;;;;5010327;28;20081;-66
2022/08/12 01:35:14;;;;;;;13.93;7.32;;;;;;;;;;5009793;28;20088;-66
2022/08/12 01:38:16;;;;;;;12.93;7.15;;;;;;;;;;4992430;28;20490;-66
2022/08/12 01:40:44;;;;;;;13.68;7.20;;;;;;;;;;4929725;29;20047;-66
2022/08/12 01:43:13;;;;;;;15.82;7.57;;;;;;;;;;4994108;28;20410;-66
2022/08/12 01:45:47;;;;;;;16.27;7.80;;;;;;;;;;5009925;28;20041;-67
2022/08/12 01:48:22;;;;;;;12.57;6.75;;;;;;;;;;5009794;28;20057;-66
2022/08/12 01:50:57;;;;;;;16.17;7.28;;;;;;;;;;5009374;28;20132;-66
2022/08/12 01:53:25;;;;;;;14.50;7.07;;;;;;;;;;5009423;28;20117;-66
2022/08/12 01:55:52;;;;;;;13.13;7.07;;;;;;;;;;5009563;28;20120;-66
2022/08/12 02:01:23;;;;;;;14.63;7.53;;;;;;;;;;5009806;28;20061;-65
2022/08/12 02:12:56;;;;;;;13.23;6.97;;;;;;;;;;5009750;28;20140;-66
2022/08/12 02:15:44;;;;;;;13.38;7.22;;;;;;;;;;5009295;28;20042;-65
2022/08/12 02:18:33;;;;;;;13.63;7.80;;;;;;;;;;5009708;28;20111;-66
2022/08/12 02:21:01;;;;;;;15.05;7.50;;;;;;;;;;5009385;28;20053;-66
2022/08/12 02:23:28;;;;;;;13.77;7.53;;;;;;;;;;5009505;28;20065;-65
2022/08/12 02:26:06;;;;;;;16.75;7.78;;;;;;;;;;5009501;28;20438;-65
2022/08/12 02:28:32;;;;;;;15.50;7.18;;;;;;;;;;4991564;28;20050;-66
2022/08/12 02:31:03;;;;;;;15.55;7.65;;;;;;;;;;5009062;28;20049;-65
2022/08/12 02:33:30;;;;;;;11.82;6.53;;;;;;;;;;5009409;28;20208;-65
2022/08/12 02:35:56;;;;;;;17.17;7.50;;;;;;;;;;4991376;28;20049;-65
2022/08/12 02:38:23;;;;;;;12.88;7.15;;;;;;;;;;5009413;28;20181;-65
2022/08/12 02:40:52;;;;;;;16.63;7.22;;;;;;;;;;5009194;28;20089;-66
2022/08/12 02:43:24;;;;;;;13.85;6.65;;;;;;;;;;5009278;28;20050;-66
2022/08/12 02:45:53;;;;;;;14.00;7.88;;;;;;;;;;5009077;28;20042;-66
2022/08/12 02:48:29;;;;;;;13.50;7.70;;;;;;;;;;5008877;28;20085;-65
2022/08/12 02:50:56;;;;;;;15.07;7.53;;;;;;;;;;5009169;28;20072;-66
2022/08/12 02:53:22;;;;;;;15.40;7.68;;;;;;;;;;5007555;28;20145;-66
2022/08/12 02:55:48;;;;;;;13.82;8.00;;;;;;;;;;5008469;28;20565;-66
2022/08/12 02:58:14;;;;;;;;;;;;;;;;;;4991254;28;20156;-66
2022/08/12 03:00:42;;;;;;;13.73;7.32;;;;;;;;;;5023654;28;20016;-66
2022/08/12 03:03:10;;;;;;;14.50;7.28;;;;;;;;;;5009104;28;20049;-65
2022/08/12 03:05:38;;;;;;;15.23;7.47;;;;;;;;;;5009187;28;20134;-65
2022/08/12 03:08:08;;;;;;;14.50;7.00;;;;;;;;;;5008911;28;20050;-66
2022/08/12 03:10:38;;;;;;;15.57;7.40;;;;;;;;;;5009099;28;20144;-65
2022/08/12 03:13:09;;;;;;;14.98;7.63;;;;;;;;;;4991216;28;20054;-66
2022/08/12 03:15:35;;;;;;;14.50;7.65;;;;;;;;;;4991114;28;20069;-65
2022/08/12 03:18:08;;;;;;;13.20;7.13;;;;;;;;;;5008820;28;20042;-66
2022/08/12 03:20:39;;;;;;;12.05;7.03;;;;;;;;;;5008981;28;20072;-65
2022/08/12 03:23:07;;;;;;;15.93;6.97;;;;;;;;;;5008785;28;20061;-65
2022/08/12 03:25:38;;;;;;;16.27;6.85;;;;;;;;;;5008366;28;20072;-66
2022/08/12 03:28:07;;;;;;;13.85;7.63;;;;;;;;;;5008758;28;20058;-66
2022/08/12 03:30:34;;;;;;;15.38;7.43;;;;;;;;;;5008679;28;20080;-65
2022/08/12 03:33:00;;;;;;;;;;;;;;;;;;5009301;28;20141;-65
2022/08/12 03:35:27;;;;;;;13.95;7.20;;;;;;;;;;5008691;28;20427;-66
2022/08/12 03:37:55;;;;;;;15.02;7.18;;;;;;;;;;4990566;28;20129;-66
2022/08/12 04:02:30;;;;;;;13.82;6.90;;;;;;;;;;5008219;28;20056;-65
2022/08/12 04:04:56;;;;;;;12.18;6.90;;;;;;;;;;5008876;28;20131;-66
2022/08/12 04:07:23;;;;;;;17.90;7.13;;;;;;;;;;5011842;28;20068;-66
2022/08/12 04:09:49;;;;;;;13.77;6.43;;;;;;;;;;5012007;28;20205;-65
2022/08/12 04:15:03;;;;;;;18.77;6.10;;;;;;;;;;5011493;28;20095;-66
2022/08/12 04:17:29;;;;;;;13.30;6.78;;;;;;;;;;5012211;28;20049;-66
2022/08/12 04:19:56;;;;;;;13.75;6.55;;;;;;;;;;5011822;28;20055;-66
2022/08/12 04:22:28;;;;;;;13.57;6.47;;;;;;;;;;4993956;28;20052;-65
2022/08/12 04:24:54;;;;;;;13.88;6.82;;;;;;;;;;5011770;28;20050;-66
2022/08/12 04:27:20;;;;;;;12.48;6.95;;;;;;;;;;5011727;28;20041;-66
2022/08/12 04:29:46;;;;;;;;;;;;;;;;;;5012251;28;20081;-66
2022/08/12 04:32:12;;;;;;;11.75;6.55;;;;;;;;;;5011510;28;19936;-66
2022/08/12 04:34:38;;;;;;;;;;;;;;;;;;5011969;28;20100;-66
2022/08/12 04:37:04;;;;;;;15.27;6.80;;;;;;;;;;5011605;28;19922;-66
2022/08/12 04:39:30;;;;;;;17.23;7.07;;;;;;;;;;4993711;28;20061;-66
2022/08/12 04:41:59;;;;;;;15.45;7.10;;;;;;;;;;5011535;28;20076;-66
2022/08/12 04:44:26;;;;;;;12.30;6.63;;;;;;;;;;5009769;28;20107;-66
2022/08/12 04:46:53;;;;;;;13.52;6.40;;;;;;;;;;5009891;28;20149;-66
2022/08/12 04:49:20;;;;;;;11.18;5.97;;;;;;;;;;5009760;28;20062;-66
2022/08/12 04:51:46;;;;;;;14.45;6.40;;;;;;;;;;5010072;28;20430;-66
2022/08/12 04:54:14;;;;;;;14.27;6.28;;;;;;;;;;5009859;28;20046;-66
2022/08/12 04:56:40;;;;;;;13.90;5.95;;;;;;;;;;5009604;28;20105;-66
2022/08/12 04:59:06;;;;;;;12.80;6.10;;;;;;;;;;5009923;28;20053;-66
2022/08/12 05:01:32;;;;;;;;;;;;;;;;;;5010183;28;20093;-67
2022/08/12 05:03:58;;;;;;;13.05;5.97;;;;;;;;;;5009680;28;19921;-66
2022/08/12 05:06:25;;;;;;;14.88;5.95;;;;;;;;;;5009617;28;20049;-66
2022/08/12 05:08:53;;;;;;;14.40;6.00;;;;;;;;;;5009446;28;20066;-66
2022/08/12 05:11:25;;;;;;;12.27;6.00;;;;;;;;;;5009552;28;20097;-66
2022/08/12 05:13:55;;;;;;;14.48;6.57;;;;;;;;;;5010650;28;20147;-66
2022/08/12 05:16:25;;;;;;;14.88;6.30;;;;;;;;;;5009827;28;20045;-67
2022/08/12 05:18:51;;;;;;;14.43;5.70;;;;;;;;;;5010475;28;20069;-66
2022/08/12 05:21:17;;;;;;;;;;;;;;;;;;4993056;28;20045;-66
2022/08/12 05:23:43;;;;;;;13.85;6.47;;;;;;;;;;5025744;28;20369;-66
2022/08/12 05:26:09;;;;;;;;;;;;;;;;;;4993260;28;20507;-66
2022/08/12 05:28:36;;;;;;;12.63;5.93;;;;;;;;;;5009757;28;19936;-66
2022/08/12 05:31:03;;;;;;;18.38;6.45;;;;;;;;;;5010209;28;20140;-66
2022/08/12 05:33:38;;;;;;;13.32;6.30;;;;;;;;;;4976612;28;20061;-66
2022/08/12 05:36:08;;;;;;;13.15;6.10;;;;;;;;;;4992332;28;20083;-65
2022/08/12 05:41:19;;;;;;;18.35;6.40;;;;;;;;;;5010559;28;20065;-66
2022/08/12 05:43:50;;;;;;;11.80;6.38;;;;;;;;;;5010312;28;20419;-66
2022/08/12 05:46:16;;;;;;;13.15;6.10;;;;;;;;;;5010359;28;20096;-66
2022/08/12 05:48:42;;;;;;;;;;;;;;;;;;5011286;28;20163;-66
2022/08/12 05:51:10;;;;;;;13.07;6.72;;;;;;;;;;5025298;28;20032;-66
2022/08/12 05:53:37;;;;;;;16.48;6.10;;;;;;;;;;5010555;28;20402;-66
2022/08/12 05:56:04;;;;;;;16.60;6.47;;;;;;;;;;5010387;28;20093;-66
2022/08/12 05:58:30;;;;;;;;;;;;;;;;;;5010883;28;20104;-66
2022/08/12 06:00:56;;;;;;;16.65;6.32;;;;;;;;;;5025449;28;19969;-66
2022/08/12 06:03:24;;;;;;;11.40;5.40;;;;;;;;;;4992427;28;20049;-66
2022/08/12 06:05:51;;;;;;;10.70;5.60;;;;;;;;;;5010262;28;20053;-66
2022/08/12 06:08:19;;;;;;;13.18;5.60;;;;;;;;;;5010213;28;20050;-66
2022/08/12 06:10:45;;;;;;;14.57;5.22;;;;;;;;;;5010208;28;20050;-66
2022/08/12 06:13:13;;;;;;;;;;;;;;;;;;4992780;28;20085;-67
2022/08/12 06:15:40;;;;;;;11.63;5.40;;;;;;;;;;5009559;28;19987;-66
2022/08/12 06:18:07;;;;;;;12.00;5.50;;;;;;;;;;5010054;28;20409;-65
2022/08/12 06:20:39;;;;;;;14.27;5.82;;;;;;;;;;5009845;28;20049;-66
2022/08/12 06:23:06;;;;;;;13.20;5.70;;;;;;;;;;5009563;28;20054;-66
2022/08/12 06:25:33;;;;;;;11.43;5.47;;;;;;;;;;4992401;28;20394;-66
2022/08/12 06:28:02;;;;;;;13.00;5.50;;;;;;;;;;5009584;28;20058;-66
2022/08/12 06:30:29;;;;;;;12.70;5.60;;;;;;;;;;5009632;28;20053;-66
2022/08/12 06:32:55;;;;;;;15.20;5.60;;;;;;;;;;5009732;28;20472;-66
2022/08/12 06:35:21;;;;;;;;;;;;;;;;;;4975674;28;20041;-67
2022/08/12 06:37:49;;;;;;;14.40;5.13;;;;;;;;;;5009709;28;19921;-67
2022/08/12 06:42:46;;;;;;;12.55;5.05;;;;;;;;;;5009068;28;20069;-66
2022/08/12 06:43:01;;;;;;;19.00;4.65;;;;;;;;;;5009437;28;20131;-66
2022/08/12 06:45:27;;;;;;;;;;;;;;;;;;5009909;28;20053;-66
2022/08/12 06:47:55;;;;;;;13.45;5.18;;;;;;;;;;5009315;28;20226;-66
2022/08/12 06:50:21;;;;;;;11.27;5.07;;;;;;;;;;5008930;28;20053;-66
2022/08/12 06:52:49;;;;;;;12.00;4.82;;;;;;;;;;5008627;28;20148;-66
2022/08/12 06:55:19;;;;;;;11.95;4.45;;;;;;;;;;5008433;28;20097;-67
2022/08/12 06:58:00;;;;;;;11.93;5.30;;;;;;;;;;5008175;28;20223;-66
2022/08/12 07:00:32;;;;;;;15.00;4.90;;;;;;;;;;5008378;28;20411;-66
2022/08/12 07:02:59;;;;;;;11.65;4.90;;;;;;;;;;4990515;28;20439;-67
2022/08/12 07:05:26;;;;;;;13.40;5.03;;;;;;;;;;5007843;28;20427;-67
2022/08/12 07:07:58;;;;;;;11.63;4.38;;;;;;;;;;5008345;28;20045;-66
2022/08/12 07:10:24;;;;;;;10.35;4.60;;;;;;;;;;5008717;28;20057;-67
2022/08/12 07:12:53;;;;;;;14.95;4.85;;;;;;;;;;5008665;28;20359;-67
2022/08/12 07:15:23;;;;;;;13.18;4.50;;;;;;;;;;5008643;28;20049;-67
2022/08/12 07:17:50;;;;;;;11.15;4.50;;;;;;;;;;5008269;28;20060;-66
2022/08/12 07:20:16;;;;;;;13.73;4.82;;;;;;;;;;5008275;28;20107;-67
2022/08/12 07:22:42;;;;;;;13.07;4.40;;;;;;;;;;5008273;28;20115;-66
2022/08/12 07:28:00;;;;;;;11.07;4.28;;;;;;;;;;5008310;28;20409;-66
2022/08/12 07:30:26;;;;;;;11.75;4.13;;;;;;;;;;5007941;28;20054;-67
2022/08/12 07:32:53;;;;;;;11.00;4.10;;;;;;;;;;5008099;28;20054;-67
2022/08/12 07:35:20;;;;;;;11.52;4.40;;;;;;;;;;5008005;28;20081;-72
2022/08/12 07:37:49;;;;;;;12.80;4.13;;;;;;;;;;4990609;28;20149;-67
2022/08/12 07:40:18;;;;;;;12.77;4.18;;;;;;;;;;4991374;28;20176;-67
2022/08/12 07:42:45;;;;;;;9.82;4.03;;;;;;;;;;5011719;28;20084;-67
2022/08/12 07:45:11;;;;;;;10.63;4.32;;;;;;;;;;5011766;28;20469;-67
2022/08/12 07:47:42;;;;;;;11.45;3.88;;;;;;;;;;5011736;28;20069;-67
2022/08/12 07:50:08;;;;;;;11.10;4.28;;;;;;;;;;5011651;28;20050;-67
2022/08/12 07:52:36;;;;;;;14.75;4.07;;;;;;;;;;5011930;28;20160;-67
2022/08/12 07:55:03;;;;;;;9.18;4.30;;;;;;;;;;4994078;28;20139;-66
2022/08/12 07:57:32;;;;;;;10.80;4.32;;;;;;;;;;5011164;28;20147;-66
2022/08/12 08:00:04;;;;;;;9.98;3.90;;;;;;;;;;5011402;28;20073;-66
2022/08/12 08:02:32;;;;;;;11.55;4.28;;;;;;;;;;5011807;28;20050;-67
2022/08/12 08:04:59;;;;;;;10.95;4.03;;;;;;;;;;5011533;28;20529;-67
2022/08/12 08:07:26;;;;;;;11.50;4.57;;;;;;;;;;5011606;28;20228;-67
2022/08/12 08:09:56;;;;;;;12.90;4.15;;;;;;;;;;4993751;28;20053;-67
2022/08/12 08:15:09;;;;;;;9.63;3.92;;;;;;;;;;5011367;28;20056;-66
2022/08/12 08:17:45;;;;;;;;;;;;;;;;;;4995319;28;20054;-67
2022/08/12 08:20:12;;;;;;;9.27;3.80;;;;;;;;;;4993627;28;19921;-67
2022/08/12 08:22:39;;;;;;;10.82;3.60;;;;;;;;;;4993445;28;20385;-67
2022/08/12 08:25:06;;;;;;;14.23;3.90;;;;;;;;;;4992297;28;20064;-67
2022/08/12 08:27:45;;;;;;;10.63;3.83;;;;;;;;;;4993210;28;20139;-67
2022/08/12 08:30:11;;;;;;;11.25;4.50;;;;;;;;;;5010697;28;20123;-67
2022/08/12 08:32:38;;;;;;;10.35;3.88;;;;;;;;;;5010478;28;20108;-68
2022/08/12 08:35:06;;;;;;;12.43;4.38;;;;;;;;;;5010274;28;20058;-67
2022/08/12 08:37:32;;;;;;;11.82;3.80;;;;;;;;;;5010131;28;20156;-67
2022/08/12 08:42:35;;;;;;;15.43;3.67;;;;;;;;;;5010219;28;20129;-67
2022/08/12 08:42:44;;;;;;;12.30;4.13;;;;;;;;;;5009933;28;20157;-67
2022/08/12 08:45:14;;;;;;;;;;;;;;;;;;5010989;28;20045;-66
2022/08/12 08:47:47;;;;;;;12.38;4.10;;;;;;;;;;4992621;28;19961;-67
2022/08/12 08:50:14;;;;;;;11.48;3.55;;;;;;;;;;5010654;28;20056;-67
2022/08/12 08:52:43;;;;;;;10.82;3.83;;;;;;;;;;4992234;28;20050;-67
2022/08/12 08:55:12;;;;;;;10.95;3.75;;;;;;;;;;5009909;28;20096;-67
2022/08/12 08:57:39;;;;;;;9.75;3.78;;;;;;;;;;5009704;28;20406;-67
2022/08/12 09:00:06;;;;;;;11.40;4.00;;;;;;;;;;4992418;28;20569;-67
2022/08/12 09:02:32;;;;;;;10.43;4.03;;;;;;;;;;5010308;28;20081;-68
2022/08/12 09:04:58;;;;;;;9.80;3.80;;;;;;;;;;5010103;28;20477;-67
2022/08/12 09:07:27;;;;;;;14.95;4.07;;;;;;;;;;4992534;28;20133;-66
2022/08/12 09:09:54;;;;;;;11.63;4.30;;;;;;;;;;4975895;28;20069;-65
2022/08/12 09:15:07;;;;;;;9.82;4.00;;;;;;;;;;5009864;28;20601;-66
2022/08/12 09:17:33;;;;;;;9.48;4.03;;;;;;;;;;5010081;28;20116;-67
2022/08/12 09:19:59;;;;;;;11.70;4.03;;;;;;;;;;4992020;28;20440;-66
2022/08/12 09:22:26;;;;;;;15.93;4.25;;;;;;;;;;4992719;28;20042;-68
2022/08/12 09:24:55;;;;;;;13.32;4.07;;;;;;;;;;5009599;28;20073;-66
2022/08/12 09:27:21;;;;;;;12.02;3.90;;;;;;;;;;5010060;28;20053;-66
2022/08/12 09:29:47;;;;;;;12.00;4.00;;;;;;;;;;5009999;28;20054;-67
2022/08/12 09:32:13;;;;;;;10.10;3.92;;;;;;;;;;5009621;28;20056;-67
2022/08/12 09:34:39;;;;;;;9.48;3.80;;;;;;;;;;5009585;28;20042;-68
2022/08/12 09:37:05;;;;;;;9.73;3.67;;;;;;;;;;5009713;28;20438;-67
2022/08/12 09:39:31;;;;;;;13.55;3.60;;;;;;;;;;5009837;28;20054;-81
2022/08/12 09:47:28;;;;;;;9.55;3.75;;;;;;;;;;5009871;28;20117;-68
2022/08/12 09:49:54;;;;;;;13.02;3.70;;;;;;;;;;4991808;28;20110;-68
2022/08/12 09:52:21;;;;;;;10.18;3.75;;;;;;;;;;5009369;28;20065;-68
2022/08/12 09:54:47;;;;;;;12.25;3.70;;;;;;;;;;5009491;28;20050;-68
2022/08/12 09:57:18;;;;;;;10.68;3.92;;;;;;;;;;5009380;28;20141;-68
2022/08/12 09:59:44;;;;;;;10.85;3.95;;;;;;;;;;5009197;28;20525;-67
2022/08/12 10:02:11;;;;;;;12.18;3.80;;;;;;;;;;5009854;28;20133;-69
2022/08/12 10:04:41;;;;;;;10.90;4.10;;;;;;;;;;5009069;28;20370;-71
2022/08/12 10:07:07;;;;;;;13.60;4.10;;;;;;;;;;4976274;28;20081;-67
2022/08/12 10:09:36;;;;;;;11.10;3.78;;;;;;;;;;5009407;28;20331;-67
2022/08/12 10:14:47;;;;;;;10.18;3.53;;;;;;;;;;5009021;28;20126;-68
2022/08/12 10:17:20;;;;;;;12.88;4.38;;;;;;;;;;5009320;28;20228;-68
2022/08/12 10:19:51;;;;;;;9.32;3.58;;;;;;;;;;5009272;28;20050;-69
2022/08/12 10:22:17;;;;;;;12.60;3.80;;;;;;;;;;5009254;28;20544;-67
2022/08/12 10:29:35;;;;;;;12.23;4.15;;;;;;;;;;5008950;28;20192;-67
2022/08/12 10:30:14;;;;;;;10.35;3.75;;;;;;;;;;5009285;28;20046;-67
2022/08/12 10:32:40;;;;;;;11.40;4.20;;;;;;;;;;4990887;28;20117;-68
2022/08/12 10:35:07;;;;;;;9.93;3.70;;;;;;;;;;5008546;28;20355;-66
2022/08/12 10:37:34;;;;;;;10.75;4.18;;;;;;;;;;4990721;28;20046;-68
2022/08/12 10:40:00;;;;;;;12.57;4.38;;;;;;;;;;5008623;28;20053;-67
2022/08/12 10:45:11;;;;;;;16.20;4.45;;;;;;;;;;4991369;28;20064;-68
2022/08/12 10:47:37;;;;;;;14.15;3.72;;;;;;;;;;5008331;28;20154;-67
2022/08/12 10:50:06;;;;;;;10.75;3.70;;;;;;;;;;5008638;28;20324;-68
2022/08/12 10:52:32;;;;;;;10.23;3.95;;;;;;;;;;5008916;28;20125;-68
2022/08/12 10:54:59;;;;;;;8.38;3.33;;;;;;;;;;5008178;28;20443;-67
2022/08/12 10:57:27;;;;;;;11.27;3.88;;;;;;;;;;4990578;28;20159;-67
2022/08/12 10:59:56;;;;;;;10.68;3.80;;;;;;;;;;5008672;28;20065;-68
2022/08/12 11:02:26;;;;;;;8.80;3.50;;;;;;;;;;4990235;28;20053;-68
2022/08/12 11:04:57;;;;;;;10.75;3.65;;;;;;;;;;5008209;28;20046;-69
2022/08/12 11:07:23;;;;;;;11.20;3.50;;;;;;;;;;5008390;28;20089;-68
2022/08/12 11:09:50;;;;;;;9.93;3.55;;;;;;;;;;5008615;28;20057;-68
2022/08/12 11:12:16;;;;;;;9.88;3.25;;;;;;;;;;5009082;28;20046;-67
2022/08/12 11:14:43;;;;;;;12.82;3.53;;;;;;;;;;5007911;28;20054;-72
2022/08/12 11:17:11;;;;;;;10.10;3.33;;;;;;;;;;5008511;28;20061;-68
2022/08/12 11:19:39;;;;;;;10.88;3.88;;;;;;;;;;4991584;28;20128;-68
2022/08/12 11:22:06;;;;;;;9.07;3.33;;;;;;;;;;5008567;28;20057;-71
2022/08/12 11:24:32;;;;;;;11.90;3.33;;;;;;;;;;5008694;28;20103;-67
2022/08/12 11:26:59;;;;;;;8.43;3.25;;;;;;;;;;5008159;28;20524;-68
2022/08/12 11:29:25;;;;;;;12.15;3.30;;;;;;;;;;5008318;28;20084;-67
2022/08/12 11:31:52;;;;;;;9.70;3.90;;;;;;;;;;5008801;28;20058;-68
2022/08/12 11:34:18;;;;;;;11.90;3.25;;;;;;;;;;4991127;28;20136;-67
2022/08/12 11:37:06;;;;;;;9.48;3.42;;;;;;;;;;4975597;28;20051;-67
2022/08/12 11:39:32;;;;;;;10.95;3.22;;;;;;;;;;5008913;28;20042;-68
2022/08/12 11:42:02;;;;;;;9.18;3.53;;;;;;;;;;4992237;28;20065;-68
2022/08/12 11:44:28;;;;;;;11.60;3.53;;;;;;;;;;5008780;28;20415;-68
2022/08/12 11:46:54;;;;;;;8.43;3.55;;;;;;;;;;5008776;28;20200;-69
2022/08/12 11:49:21;;;;;;;7.75;3.03;;;;;;;;;;5008915;28;20079;-69
2022/08/12 11:51:47;;;;;;;9.98;3.40;;;;;;;;;;4990705;28;20143;-69
2022/08/12 11:54:13;;;;;;;9.80;3.53;;;;;;;;;;4990269;28;20369;-68
2022/08/12 11:56:39;;;;;;;14.43;3.85;;;;;;;;;;5007395;28;20473;-70
2022/08/12 11:59:05;;;;;;;10.45;2.88;;;;;;;;;;5006744;28;20147;-70
2022/08/12 12:01:31;;;;;;;9.90;3.00;;;;;;;;;;5008155;28;20394;-69
2022/08/12 12:03:57;;;;;;;7.97;3.00;;;;;;;;;;5008161;28;20042;-71
2022/08/12 12:06:26;;;;;;;10.73;3.72;;;;;;;;;;5008074;28;20069;-69
2022/08/12 12:08:52;;;;;;;8.88;3.42;;;;;;;;;;5007812;28;20121;-70
2022/08/12 12:11:19;;;;;;;10.80;3.67;;;;;;;;;;5008281;28;20140;-68
2022/08/12 12:13:45;;;;;;;10.55;3.50;;;;;;;;;;5008084;28;20435;-69
2022/08/12 12:16:12;;;;;;;10.63;3.53;;;;;;;;;;5008692;28;20107;-69
2022/08/12 12:18:38;;;;;;;8.43;3.20;;;;;;;;;;5008196;28;20053;-68
2022/08/12 12:21:06;;;;;;;9.45;3.40;;;;;;;;;;4990672;28;20456;-68
2022/08/12 12:23:33;;;;;;;9.07;3.13;;;;;;;;;;4991290;28;20119;-69
2022/08/12 12:25:59;;;;;;;11.05;3.58;;;;;;;;;;5008459;28;20061;-70
2022/08/12 12:28:25;;;;;;;12.98;3.50;;;;;;;;;;5010447;28;20228;-68
2022/08/12 12:30:51;;;;;;;13.95;3.28;;;;;;;;;;5011404;28;20058;-68
2022/08/12 12:33:19;;;;;;;9.68;3.30;;;;;;;;;;5011386;28;20081;-68
2022/08/12 12:35:45;;;;;;;8.43;3.15;;;;;;;;;;5011418;28;20046;-68
2022/08/12 12:38:12;;;;;;;8.77;3.20;;;;;;;;;;5011673;28;20057;-68
2022/08/12 12:40:40;;;;;;;10.30;3.20;;;;;;;;;;4994288;28;20140;-68
2022/08/12 12:43:06;;;;;;;10.45;3.40;;;;;;;;;;5011811;28;20470;-69
2022/08/12 12:45:36;;;;;;;9.70;3.30;;;;;;;;;;5012036;28;20049;-69
2022/08/12 12:48:04;;;;;;;8.35;3.22;;;;;;;;;;5011511;28;20049;-69
2022/08/12 12:50:31;;;;;;;12.30;3.33;;;;;;;;;;5011517;28;20155;-70
2022/08/12 12:52:57;;;;;;;9.48;3.20;;;;;;;;;;5011710;28;20415;-70
2022/08/12 12:55:24;;;;;;;9.65;3.20;;;;;;;;;;5011950;28;20052;-68
2022/08/12 12:57:50;;;;;;;12.75;3.30;;;;;;;;;;5011551;28;20116;-68
2022/08/12 13:00:17;;;;;;;9.38;3.00;;;;;;;;;;5011091;28;20073;-69
2022/08/12 13:02:54;;;;;;;7.47;3.00;;;;;;;;;;5011500;28;20439;-68
2022/08/12 13:05:30;;;;;;;7.97;2.90;;;;;;;;;;5012342;28;20157;-70
2022/08/12 13:07:58;;;;;;;8.32;2.72;;;;;;;;;;5012159;28;20050;-68
2022/08/12 13:10:24;;;;;;;8.40;3.17;;;;;;;;;;4993707;28;20073;-68
2022/08/12 13:12:50;;;;;;;11.05;3.00;;;;;;;;;;4994710;28;20053;-70
2022/08/12 13:15:17;;;;;;;10.43;3.20;;;;;;;;;;4993473;28;20180;-70
2022/08/12 13:17:46;;;;;;;11.20;2.83;;;;;;;;;;4993605;28;20467;-68
2022/08/12 13:20:17;;;;;;;8.07;3.15;;;;;;;;;;5011348;28;20172;-66
2022/08/12 13:22:43;;;;;;;13.25;3.60;;;;;;;;;;5009771;28;20132;-68
2022/08/12 13:25:10;;;;;;;8.60;2.88;;;;;;;;;;5011262;28;20069;-69
2022/08/12 13:27:40;;;;;;;10.35;3.00;;;;;;;;;;5010777;28;20176;-68
2022/08/12 13:30:08;;;;;;;9.82;3.42;;;;;;;;;;4993172;28;20145;-69
2022/08/12 13:32:36;;;;;;;9.80;2.70;;;;;;;;;;5011182;28;20053;-67
2022/08/12 13:35:02;;;;;;;10.63;3.10;;;;;;;;;;5011404;28;20141;-73
2022/08/12 13:37:28;;;;;;;7.82;2.75;;;;;;;;;;5010240;28;20501;-67
2022/08/12 13:39:54;;;;;;;8.93;2.75;;;;;;;;;;5010455;28;20121;-67
2022/08/12 13:42:24;;;;;;;8.90;3.03;;;;;;;;;;4977258;28;20061;-68
2022/08/12 13:44:51;;;;;;;9.07;2.90;;;;;;;;;;5011425;28;20057;-69
2022/08/12 13:47:18;;;;;;;11.10;3.28;;;;;;;;;;5010821;28;20175;-68
2022/08/12 13:49:47;;;;;;;8.45;3.10;;;;;;;;;;5010826;28;20470;-66
2022/08/12 13:52:14;;;;;;;9.00;2.90;;;;;;;;;;5010383;28;20049;-67
2022/08/12 13:54:40;;;;;;;7.07;2.72;;;;;;;;;;5010589;28;20458;-69
2022/08/12 13:57:08;;;;;;;8.90;2.92;;;;;;;;;;4991903;28;20434;-69
2022/08/12 13:59:34;;;;;;;7.72;3.08;;;;;;;;;;5009592;28;20061;-68
2022/08/12 14:02:00;;;;;;;9.70;3.15;;;;;;;;;;4991624;28;20458;-69
2022/08/12 14:04:26;;;;;;;15.50;3.20;;;;;;;;;;5009210;28;20046;-68
2022/08/12 14:06:52;;;;;;;11.75;3.10;;;;;;;;;;5009012;28;20443;-69
2022/08/12 14:09:18;;;;;;;9.45;2.75;;;;;;;;;;5009481;28;20096;-71
2022/08/12 14:11:47;;;;;;;11.85;3.10;;;;;;;;;;5009164;28;20057;-68
2022/08/12 14:14:14;;;;;;;6.95;2.90;;;;;;;;;;5009008;28;20065;-70
2022/08/12 14:16:40;;;;;;;10.30;3.05;;;;;;;;;;5008728;28;20048;-70
2022/08/12 14:19:06;;;;;;;10.85;3.08;;;;;;;;;;5009016;28;20050;-69
2022/08/12 14:21:32;;;;;;;7.63;2.78;;;;;;;;;;5009003;28;20049;-69
2022/08/12 14:23:58;;;;;;;9.27;3.22;;;;;;;;;;5008711;28;20127;-68
2022/08/12 14:26:24;;;;;;;9.27;3.10;;;;;;;;;;5008310;28;20447;-68
2022/08/12 14:28:52;;;;;;;10.70;2.85;;;;;;;;;;4990986;28;20135;-69
2022/08/12 14:31:20;;;;;;;8.90;3.10;;;;;;;;;;5008835;28;20159;-69
2022/08/12 14:33:47;;;;;;;9.65;3.33;;;;;;;;;;5008922;28;20058;-68
2022/08/12 14:36:14;;;;;;;11.02;3.10;;;;;;;;;;5008534;28;20515;-68
2022/08/12 14:38:43;;;;;;;8.73;3.05;;;;;;;;;;5008783;28;20212;-69
2022/08/12 14:41:19;;;;;;;9.88;3.40;;;;;;;;;;5009517;28;20054;-73
2022/08/12 14:43:47;;;;;;;11.10;3.47;;;;;;;;;;5009077;28;20081;-69
2022/08/12 14:46:23;;;;;;;8.75;3.25;;;;;;;;;;4991746;28;20067;-74
2022/08/12 14:48:50;;;;;;;11.20;3.20;;;;;;;;;;5009356;28;20196;-68
2022/08/12 14:51:17;;;;;;;11.23;3.03;;;;;;;;;;5007396;28;20058;-69
2022/08/12 14:53:44;;;;;;;11.25;3.22;;;;;;;;;;5008866;28;20050;-67
2022/08/12 14:56:14;;;;;;;13.38;3.83;;;;;;;;;;5008899;28;20471;-69
2022/08/12 15:01:37;;;;;;;12.82;3.72;;;;;;;;;;5008746;28;20156;-67
2022/08/12 15:04:04;;;;;;;11.90;3.50;;;;;;;;;;5009062;28;20053;-72
2022/08/12 15:06:30;;;;;;;9.05;3.15;;;;;;;;;;5007795;28;20136;-69
2022/08/12 15:08:56;;;;;;;15.57;3.47;;;;;;;;;;5008598;28;20149;-71
2022/08/12 15:11:22;;;;;;;16.05;3.65;;;;;;;;;;5008578;28;20081;-70
2022/08/12 15:13:49;;;;;;;11.57;3.35;;;;;;;;;;5008787;28;20057;-70
2022/08/12 15:16:15;;;;;;;10.68;3.70;;;;;;;;;;5008565;28;20125;-73
2022/08/12 15:18:45;;;;;;;11.18;3.50;;;;;;;;;;5008059;28;20064;-69
2022/08/12 15:21:12;;;;;;;10.98;3.45;;;;;;;;;;5008855;28;20050;-68
2022/08/12 15:23:39;;;;;;;15.68;3.53;;;;;;;;;;5007584;28;20213;-69
2022/08/12 15:26:11;;;;;;;12.57;3.40;;;;;;;;;;5008838;28;20192;-70
2022/08/12 15:28:40;;;;;;;12.60;3.33;;;;;;;;;;5008776;28;20053;-69
2022/08/12 15:31:12;;;;;;;10.00;3.42;;;;;;;;;;5008860;28;20370;-70
2022/08/12 15:33:38;;;;;;;13.50;3.60;;;;;;;;;;5008580;28;20094;-74
2022/08/12 15:36:07;;;;;;;10.10;3.60;;;;;;;;;;5008196;28;20093;-71
2022/08/12 15:38:34;;;;;;;10.30;3.30;;;;;;;;;;5007860;28;20069;-70
2022/08/12 15:41:00;;;;;;;11.77;3.33;;;;;;;;;;5008444;28;20050;-69
2022/08/12 15:43:30;;;;;;;11.32;3.30;;;;;;;;;;5005809;28;20141;-70
2022/08/12 15:45:57;;;;;;;8.32;2.97;;;;;;;;;;5008252;28;20486;-77
2022/08/12 15:48:24;;;;;;;12.82;3.70;;;;;;;;;;4990901;28;20121;-68
2022/08/12 15:50:51;;;;;;;8.65;3.20;;;;;;;;;;5007871;28;20148;-69
2022/08/12 15:56:07;;;;;;;10.77;4.05;;;;;;;;;;5008717;28;20130;-73
2022/08/12 15:58:34;;;;;;;13.30;3.65;;;;;;;;;;4991503;28;20429;-70
2022/08/12 16:01:00;;;;;;;14.13;3.70;;;;;;;;;;4991143;28;20406;-70
2022/08/12 16:03:33;;;;;;;11.10;3.25;;;;;;;;;;5012375;28;20085;-70
2022/08/12 16:05:59;;;;;;;12.85;3.67;;;;;;;;;;4978104;28;20081;-70
2022/08/12 16:08:28;;;;;;;9.93;3.65;;;;;;;;;;5011980;28;20053;-70
2022/08/12 16:10:55;;;;;;;14.68;3.90;;;;;;;;;;5012029;28;20121;-69
2022/08/12 16:13:22;;;;;;;9.00;3.58;;;;;;;;;;4994148;28;20062;-75
2022/08/12 16:15:49;;;;;;;13.48;3.50;;;;;;;;;;5011510;28;20045;-70
2022/08/12 16:18:16;;;;;;;13.30;4.00;;;;;;;;;;5011910;28;20046;-69
2022/08/12 16:20:44;;;;;;;15.73;4.03;;;;;;;;;;5012025;28;20120;-70
2022/08/12 16:23:14;;;;;;;14.70;4.10;;;;;;;;;;5012239;28;20073;-71
2022/08/12 16:25:41;;;;;;;11.63;4.03;;;;;;;;;;5012213;28;20041;-69
2022/08/12 16:28:11;;;;;;;11.80;3.63;;;;;;;;;;5012062;28;20049;-70
2022/08/12 16:30:37;;;;;;;9.77;3.50;;;;;;;;;;5012185;28;20068;-71
2022/08/12 16:33:07;;;;;;;11.27;3.78;;;;;;;;;;5010972;28;20526;-70
2022/08/12 16:35:35;;;;;;;12.18;3.78;;;;;;;;;;5011272;28;20069;-71
2022/08/12 16:38:03;;;;;;;12.73;3.40;;;;;;;;;;4993524;28;20433;-72
2022/08/12 16:40:30;;;;;;;12.18;3.53;;;;;;;;;;5011001;28;20049;-71
2022/08/12 16:42:56;;;;;;;9.77;3.47;;;;;;;;;;5010875;28;20049;-70